Time;durP1;ratioP1;P1;durP2;ratioP2;P2;SDS_P1;SDS_P2;PMS_P1;PMS_P2;Temp;Humidity;BMP_temperature;BMP_pressure;BME280_temperature;BME280_humidity;BME280_pressure;Samples;Min_cycle;Max_cycle;Signal;HPM_P1;HPM_P2
2023/06/10 00:02:14;;;;;;;7.03;6.40;;;;;;;16.27;100.00;95883.47;5007799;28;103756;-60
2023/06/10 00:04:41;;;;;;;8.77;6.17;;;;;;;15.94;100.00;95884.66;5008054;28;101856;-60
2023/06/10 00:07:08;;;;;;;8.47;6.03;;;;;;;15.81;100.00;95880.84;5011453;28;105265;-60
2023/06/10 00:09:36;;;;;;;7.07;6.13;;;;;;;15.88;100.00;95883.97;5008569;28;102450;-60
2023/06/10 00:12:06;;;;;;;8.63;6.00;;;;;;;15.57;100.00;95887.44;5008506;28;105242;-60
2023/06/10 00:14:33;;;;;;;7.27;6.57;;;;;;;15.56;100.00;95885.84;5007822;28;105756;-60
2023/06/10 00:17:00;;;;;;;6.50;5.90;;;;;;;15.62;100.00;95887.34;5008469;28;101997;-60
2023/06/10 00:19:29;;;;;;;7.17;6.57;;;;;;;15.71;100.00;95877.56;5009461;28;103018;-60
2023/06/10 00:21:57;;;;;;;6.70;6.10;;;;;;;15.55;100.00;95892.31;5007832;28;104999;-60
2023/06/10 00:24:24;;;;;;;7.00;6.30;;;;;;;15.49;100.00;95888.91;5009709;28;101820;-60
2023/06/10 00:26:52;;;;;;;6.90;6.17;;;;;;;15.35;100.00;95881.91;5009831;28;102860;-60
2023/06/10 00:29:20;;;;;;;7.23;6.63;;;;;;;15.43;100.00;95889.28;5010516;28;101809;-60
2023/06/10 00:31:47;;;;;;;6.40;5.80;;;;;;;15.49;100.00;95893.47;5009735;28;102450;-60
2023/06/10 00:34:14;;;;;;;7.23;6.53;;;;;;;15.45;100.00;95889.78;5008928;28;103007;-60
2023/06/10 00:36:43;;;;;;;6.80;6.17;;;;;;;15.51;100.00;95891.28;5009795;28;102071;-60
2023/06/10 00:39:09;;;;;;;7.03;6.43;;;;;;;15.34;100.00;95891.84;5009674;28;102420;-60
2023/06/10 00:41:37;;;;;;;6.90;6.30;;;;;;;15.39;100.00;95896.31;5008846;28;102531;-60
2023/06/10 00:44:04;;;;;;;6.70;6.10;;;;;;;15.16;100.00;95895.28;5007775;28;101865;-61
2023/06/10 00:46:33;;;;;;;7.20;6.50;;;;;;;15.03;100.00;95895.22;5008083;28;105280;-60
2023/06/10 00:49:01;;;;;;;6.53;5.93;;;;;;;15.04;100.00;95896.81;5010676;28;105009;-60
2023/06/10 00:51:28;;;;;;;7.23;6.50;;;;;;;15.18;100.00;95892.31;5008066;28;104857;-60
2023/06/10 00:53:55;;;;;;;8.13;7.43;;;;;;;15.27;100.00;95895.94;5008764;28;103041;-60
2023/06/10 00:56:23;;;;;;;8.67;6.80;;;;;;;15.28;100.00;95897.53;5007480;28;103633;-61
2023/06/10 00:58:51;;;;;;;7.17;6.57;;;;;;;15.18;100.00;95893.13;5007891;28;104016;-60
2023/06/10 01:01:19;;;;;;;7.67;7.00;;;;;;;15.24;100.00;95893.81;5007198;28;105239;-60
2023/06/10 01:03:48;;;;;;;6.97;6.37;;;;;;;15.21;100.00;95897.09;5009392;28;101992;-60
2023/06/10 01:06:24;;;;;;;7.57;6.93;;;;;;;15.13;100.00;95897.75;5007728;28;105290;-60
2023/06/10 01:08:58;;;;;;;7.87;7.17;;;;;;;15.04;100.00;95902.97;5007181;28;105902;-60
2023/06/10 01:11:30;;;;;;;7.40;6.80;;;;;;;15.09;100.00;95899.44;5012744;28;102223;-60
2023/06/10 01:13:59;;;;;;;7.07;6.47;;;;;;;15.13;100.00;95900.44;5007186;28;105736;-60
2023/06/10 01:16:26;;;;;;;7.80;6.70;;;;;;;14.85;100.00;95896.00;5007504;28;101912;-60
2023/06/10 01:18:55;;;;;;;8.07;6.80;;;;;;;14.68;100.00;95898.38;5012013;28;102693;-60
2023/06/10 01:21:24;;;;;;;7.37;6.67;;;;;;;14.58;100.00;95899.31;5010469;28;105073;-60
2023/06/10 01:23:53;;;;;;;8.10;7.30;;;;;;;14.73;100.00;95901.00;5010987;28;101957;-60
2023/06/10 01:26:23;;;;;;;7.20;6.50;;;;;;;14.78;100.00;95908.97;5010780;28;104816;-60
2023/06/10 01:28:56;;;;;;;7.27;6.60;;;;;;;14.74;100.00;95899.91;5010420;28;105713;-60
2023/06/10 01:31:36;;;;;;;7.60;6.80;;;;;;;14.72;100.00;95899.41;5010934;28;101849;-60
2023/06/10 01:34:07;;;;;;;7.03;6.43;;;;;;;14.76;100.00;95903.06;5015009;28;102154;-60
2023/06/10 01:36:37;;;;;;;7.33;6.63;;;;;;;14.77;100.00;95900.13;5010782;28;101997;-60
2023/06/10 01:39:05;;;;;;;7.70;7.00;;;;;;;14.79;100.00;95894.50;5010843;28;105284;-60
2023/06/10 01:41:33;;;;;;;8.37;7.47;;;;;;;14.79;100.00;95899.84;5010267;28;103671;-60
2023/06/10 01:44:00;;;;;;;8.40;7.60;;;;;;;14.75;100.00;95891.59;5010724;28;101886;-60
2023/06/10 01:46:27;;;;;;;7.87;7.07;;;;;;;14.68;100.00;95895.72;5010565;28;105179;-60
2023/06/10 01:48:54;;;;;;;7.97;7.27;;;;;;;14.68;100.00;95901.06;5009883;28;105118;-60
2023/06/10 01:51:21;;;;;;;8.07;7.23;;;;;;;14.69;100.00;95903.47;5010675;28;101874;-60
2023/06/10 01:53:50;;;;;;;8.20;7.50;;;;;;;14.64;100.00;95902.72;5010226;28;105843;-60
2023/06/10 01:56:19;;;;;;;7.37;6.63;;;;;;;14.60;100.00;95902.50;4996708;28;104965;-60
2023/06/10 01:58:47;;;;;;;7.43;6.73;;;;;;;14.63;100.00;95895.78;5010610;28;105497;-60
2023/06/10 02:01:14;;;;;;;8.67;7.10;;;;;;;14.63;100.00;95901.94;5009782;28;105586;-60
2023/06/10 02:03:40;;;;;;;7.67;6.97;;;;;;;14.40;100.00;95904.63;5010538;28;101881;-60
2023/06/10 02:06:10;;;;;;;7.70;7.00;;;;;;;13.97;100.00;95898.38;5009924;28;104756;-60
2023/06/10 02:08:37;;;;;;;6.57;6.07;;;;;;;14.01;100.00;95901.28;5009902;28;103771;-60
2023/06/10 02:11:06;;;;;;;7.47;6.77;;;;;;;13.84;100.00;95908.94;5010405;28;102180;-60
2023/06/10 02:13:33;;;;;;;7.80;7.13;;;;;;;13.72;100.00;95906.63;5010002;28;105172;-60
2023/06/10 02:16:00;;;;;;;8.20;7.40;;;;;;;13.83;100.00;95908.13;5009655;28;105560;-60
2023/06/10 02:18:30;;;;;;;8.57;7.87;;;;;;;13.87;100.00;95906.50;5013258;28;101920;-60
2023/06/10 02:20:56;;;;;;;8.90;8.10;;;;;;;13.99;100.00;95900.75;5011112;28;102805;-60
2023/06/10 02:23:24;;;;;;;8.87;8.07;;;;;;;13.89;100.00;95900.88;5010156;28;102114;-60
2023/06/10 02:25:50;;;;;;;9.00;8.17;;;;;;;13.93;100.00;95907.22;5011320;28;102523;-60
2023/06/10 02:28:20;;;;;;;8.80;8.00;;;;;;;14.00;100.00;95907.72;5008923;28;105289;-60
2023/06/10 02:30:47;;;;;;;8.43;7.57;;;;;;;14.03;100.00;95907.13;5011412;28;101924;-60
2023/06/10 02:33:15;;;;;;;7.90;7.23;;;;;;;14.03;100.00;95902.59;5009848;28;103849;-60
2023/06/10 02:35:43;;;;;;;9.27;7.70;;;;;;;14.04;100.00;95906.88;5009004;28;105472;-60
2023/06/10 02:38:10;;;;;;;7.43;6.83;;;;;;;13.83;100.00;95904.66;5013305;28;101960;-60
2023/06/10 02:40:37;;;;;;;8.13;7.33;;;;;;;13.82;100.00;95905.75;5009362;28;105416;-60
2023/06/10 02:43:04;;;;;;;8.20;7.33;;;;;;;13.85;100.00;95903.28;5009537;28;102369;-60
2023/06/10 02:45:36;;;;;;;8.17;7.47;;;;;;;13.80;100.00;95910.59;5009637;28;105634;-60
2023/06/10 02:48:05;;;;;;;8.03;7.23;;;;;;;13.58;100.00;95915.59;5009025;28;105617;-60
2023/06/10 02:50:33;;;;;;;8.10;7.40;;;;;;;13.65;100.00;95916.06;5011140;28;102297;-60
2023/06/10 02:53:08;;;;;;;7.70;7.00;;;;;;;13.61;100.00;95909.66;5009566;28;105203;-60
2023/06/10 02:55:39;;;;;;;7.70;7.00;;;;;;;13.59;100.00;95912.66;5009066;28;105975;-60
2023/06/10 02:58:10;;;;;;;7.87;7.17;;;;;;;13.55;100.00;95906.25;5009361;28;102043;-60
2023/06/10 03:00:40;;;;;;;8.50;7.70;;;;;;;13.63;100.00;95907.53;5012156;28;105445;-60
2023/06/10 03:03:10;;;;;;;8.63;7.30;;;;;;;13.62;100.00;95905.94;5009527;28;101875;-60
2023/06/10 03:05:46;;;;;;;8.07;7.37;;;;;;;13.31;100.00;95909.94;5009562;28;105306;-60
2023/06/10 03:08:14;;;;;;;8.10;7.30;;;;;;;13.14;100.00;95915.63;5008774;28;104790;-60
2023/06/10 03:10:43;;;;;;;7.83;7.20;;;;;;;13.09;100.00;95912.22;5009446;28;101932;-60
2023/06/10 03:13:16;;;;;;;8.30;7.60;;;;;;;13.16;100.00;95918.03;5009379;28;104778;-60
2023/06/10 03:15:45;;;;;;;9.20;7.87;;;;;;;13.17;100.00;95924.97;5008667;28;105385;-60
2023/06/10 03:18:16;;;;;;;7.93;7.23;;;;;;;13.16;100.00;95928.72;5009165;28;101917;-60
2023/06/10 03:20:44;;;;;;;8.93;8.13;;;;;;;13.14;100.00;95928.22;5009287;28;105173;-60
2023/06/10 03:23:11;;;;;;;9.17;8.37;;;;;;;13.20;100.00;95930.56;5012383;28;104967;-60
2023/06/10 03:25:39;;;;;;;8.97;8.17;;;;;;;13.21;100.00;95929.50;5010553;28;102922;-60
2023/06/10 03:28:07;;;;;;;8.53;7.80;;;;;;;13.17;100.00;95925.78;5008191;28;105246;-60
2023/06/10 03:30:36;;;;;;;8.93;8.13;;;;;;;13.20;100.00;95929.78;5009193;28;102030;-60
2023/06/10 03:33:05;;;;;;;8.87;8.07;;;;;;;13.26;100.00;95929.47;5009373;28;105225;-60
2023/06/10 03:35:34;;;;;;;8.03;7.33;;;;;;;13.28;100.00;95927.31;5007986;28;105858;-60
2023/06/10 03:38:02;;;;;;;8.20;7.40;;;;;;;13.33;100.00;95929.13;5009028;28;101822;-60
2023/06/10 03:40:30;;;;;;;8.73;8.00;;;;;;;13.19;100.00;95930.84;5008291;28;104715;-60
2023/06/10 03:42:57;;;;;;;8.40;7.60;;;;;;;13.02;100.00;95936.53;5009966;28;102796;-60
2023/06/10 03:45:24;;;;;;;8.57;7.20;;;;;;;12.93;100.00;95940.03;5011996;28;101893;-60
2023/06/10 03:47:52;;;;;;;7.90;7.23;;;;;;;13.06;100.00;95942.13;5008192;28;105171;-60
2023/06/10 03:50:26;;;;;;;8.10;7.27;;;;;;;13.04;100.00;95942.41;5008508;28;101905;-60
2023/06/10 03:52:53;;;;;;;8.50;7.70;;;;;;;13.10;100.00;95945.84;5008998;28;105793;-60
2023/06/10 03:55:23;;;;;;;8.67;7.87;;;;;;;13.26;100.00;95939.34;5008061;28;105309;-60
2023/06/10 03:57:51;;;;;;;8.80;8.00;;;;;;;13.35;100.00;95937.69;5008453;28;101974;-60
2023/06/10 04:00:21;;;;;;;8.70;7.90;;;;;;;13.33;100.00;95943.28;5010132;28;102330;-60
2023/06/10 04:02:51;;;;;;;8.20;7.50;;;;;;;13.41;100.00;95942.69;5005510;28;102430;-60
2023/06/10 04:05:37;;;;;;;7.63;7.03;;;;;;;13.49;100.00;95942.09;5008550;28;101964;-60
2023/06/10 04:08:05;;;;;;;8.97;8.27;;;;;;;13.58;100.00;95940.41;5011283;28;105172;-60
2023/06/10 04:10:32;;;;;;;9.00;8.13;;;;;;;13.71;100.00;95953.16;5008459;28;101906;-60
2023/06/10 04:12:59;;;;;;;8.60;7.87;;;;;;;13.83;100.00;95950.09;5008684;28;103974;-60
2023/06/10 04:15:32;;;;;;;8.47;7.77;;;;;;;13.92;100.00;95959.09;5007963;28;105846;-60
2023/06/10 04:18:00;;;;;;;8.57;7.80;;;;;;;14.04;100.00;95959.53;5008217;28;102004;-60
2023/06/10 04:20:28;;;;;;;8.93;8.13;;;;;;;14.14;100.00;95962.91;5008428;28;106212;-60
2023/06/10 04:22:56;;;;;;;9.50;8.40;;;;;;;14.21;100.00;95962.59;5009285;28;103014;-60
2023/06/10 04:25:24;;;;;;;9.90;8.90;;;;;;;14.28;100.00;95963.06;5008296;28;101960;-60
2023/06/10 04:27:51;;;;;;;9.77;8.87;;;;;;;14.36;100.00;95965.13;5008171;28;105254;-60
2023/06/10 04:30:19;;;;;;;9.67;8.87;;;;;;;14.46;100.00;95968.50;5011376;28;105952;-60
2023/06/10 04:32:46;;;;;;;9.23;8.43;;;;;;;14.59;100.00;95958.97;5008373;28;105393;-60
2023/06/10 04:35:17;;;;;;;8.97;8.17;;;;;;;14.72;100.00;95969.00;5007545;28;105520;-60
2023/06/10 04:37:45;;;;;;;8.37;7.60;;;;;;;14.84;100.00;95970.19;4991974;28;101813;-60
2023/06/10 04:40:15;;;;;;;8.57;7.67;;;;;;;14.89;100.00;95963.97;5007821;28;104929;-60
2023/06/10 04:42:43;;;;;;;10.30;8.20;;;;;;;14.96;100.00;95964.41;5007776;28;105457;-60
2023/06/10 04:45:11;;;;;;;8.07;7.37;;;;;;;14.88;100.00;95963.16;5007661;28;101940;-60
2023/06/10 04:47:38;;;;;;;7.30;6.70;;;;;;;14.78;100.00;95967.84;5008074;28;104937;-60
2023/06/10 04:50:07;;;;;;;7.10;6.47;;;;;;;15.09;100.00;95971.75;5010940;28;105487;-60
2023/06/10 04:52:34;;;;;;;6.97;6.27;;;;;;;15.22;100.00;95974.50;5011010;28;105592;-60
2023/06/10 04:55:02;;;;;;;6.93;5.70;;;;;;;15.42;100.00;95979.59;5011982;28;102486;-60
2023/06/10 04:57:30;;;;;;;6.93;6.30;;;;;;;15.57;100.00;95981.25;5013018;28;101915;-60
2023/06/10 04:59:57;;;;;;;7.10;6.40;;;;;;;15.65;100.00;95977.91;5011453;28;105914;-60
2023/06/10 05:02:24;;;;;;;7.57;6.87;;;;;;;15.44;100.00;95979.31;5010715;28;105346;-60
2023/06/10 05:04:51;;;;;;;7.97;7.27;;;;;;;15.59;100.00;95995.16;5010955;28;101885;-60
2023/06/10 05:07:18;;;;;;;8.20;7.40;;;;;;;15.52;100.00;95984.78;5011348;28;103554;-60
2023/06/10 05:09:45;;;;;;;7.97;7.27;;;;;;;15.70;100.00;95988.56;5010449;28;104018;-60
2023/06/10 05:12:11;;;;;;;7.73;7.10;;;;;;;15.75;100.00;95988.47;5014716;28;101898;-60
2023/06/10 05:14:40;;;;;;;7.93;7.23;;;;;;;15.78;100.00;95982.53;5010435;28;103728;-60
2023/06/10 05:17:07;;;;;;;8.67;7.70;;;;;;;15.82;100.00;95984.34;5011173;28;102445;-60
2023/06/10 05:19:35;;;;;;;8.30;7.60;;;;;;;16.05;100.00;95985.28;5011209;28;104913;-60
2023/06/10 05:22:02;;;;;;;7.63;6.90;;;;;;;16.18;100.00;95992.59;5010233;28;105610;-60
2023/06/10 05:24:29;;;;;;;6.77;6.13;;;;;;;16.39;100.00;95985.78;5011054;28;101902;-60
2023/06/10 05:26:56;;;;;;;7.70;7.00;;;;;;;16.31;100.00;95995.31;5011165;28;105223;-60
2023/06/10 05:29:23;;;;;;;8.27;7.47;;;;;;;16.15;100.00;95996.66;5010233;28;105208;-60
2023/06/10 05:31:51;;;;;;;8.77;7.37;;;;;;;16.25;100.00;95993.78;5010909;28;101883;-60
2023/06/10 05:34:18;;;;;;;7.83;7.03;;;;;;;16.05;100.00;95993.34;5013398;28;105264;-60
2023/06/10 05:36:45;;;;;;;8.23;7.30;;;;;;;16.25;100.00;95990.31;5010844;28;101972;-61
2023/06/10 05:39:12;;;;;;;8.07;6.70;;;;;;;16.50;100.00;95990.69;5010911;28;105427;-60
2023/06/10 05:41:39;;;;;;;9.03;6.60;;;;;;;16.39;100.00;95983.91;5010209;28;104037;-60
2023/06/10 05:44:05;;;;;;;7.53;6.60;;;;;;;16.35;100.00;95988.25;5010535;28;101981;-60
2023/06/10 05:46:32;;;;;;;6.53;5.93;;;;;;;16.38;100.00;95989.53;5011858;28;102346;-60
2023/06/10 05:49:01;;;;;;;6.63;5.93;;;;;;;16.56;100.00;95991.41;5009941;28;104941;-61
2023/06/10 05:51:28;;;;;;;6.00;5.50;;;;;;;16.56;100.00;95994.09;5010642;28;101928;-60
2023/06/10 05:53:55;;;;;;;6.37;5.77;;;;;;;16.57;100.00;95996.44;5010586;28;104177;-60
2023/06/10 05:56:22;;;;;;;6.43;5.73;;;;;;;16.71;100.00;95991.91;5014534;28;102669;-60
2023/06/10 05:58:49;;;;;;;7.07;6.47;;;;;;;16.73;100.00;95983.56;5010297;28;105184;-60
2023/06/10 06:01:16;;;;;;;7.43;6.50;;;;;;;16.86;100.00;95996.16;5010050;28;103761;-60
2023/06/10 06:03:43;;;;;;;6.57;6.03;;;;;;;16.71;100.00;95986.53;5009702;28;101872;-60
2023/06/10 06:06:11;;;;;;;7.00;6.40;;;;;;;16.92;100.00;95990.41;5007218;28;105494;-60
2023/06/10 06:08:38;;;;;;;7.57;6.60;;;;;;;17.06;100.00;95982.34;4989911;28;104176;-60
2023/06/10 06:11:05;;;;;;;6.63;6.13;;;;;;;17.31;100.00;95984.47;4990158;28;101937;-60
2023/06/10 06:13:31;;;;;;;6.57;5.97;;;;;;;17.46;100.00;95984.16;4990346;28;103650;-60
2023/06/10 06:15:58;;;;;;;7.83;7.10;;;;;;;17.03;100.00;95989.09;4989552;28;105099;-60
2023/06/10 06:18:25;;;;;;;8.03;6.97;;;;;;;17.41;100.00;95992.34;4993643;28;102255;-60
2023/06/10 06:20:52;;;;;;;7.80;7.03;;;;;;;17.66;100.00;95995.25;4990677;28;102658;-60
2023/06/10 06:23:20;;;;;;;7.27;6.40;;;;;;;17.76;100.00;96002.31;4990254;28;101940;-60
2023/06/10 06:25:47;;;;;;;6.53;5.90;;;;;;;18.06;100.00;95993.50;4990273;28;105209;-60
2023/06/10 06:28:14;;;;;;;7.33;6.63;;;;;;;17.96;100.00;95991.06;4989620;28;104055;-60
2023/06/10 06:30:41;;;;;;;7.00;6.27;;;;;;;18.16;100.00;95995.94;4989908;28;102106;-60
2023/06/10 06:33:08;;;;;;;6.10;5.60;;;;;;;18.63;100.00;95992.59;4990207;28;103591;-60
2023/06/10 06:35:35;;;;;;;7.60;6.50;;;;;;;18.73;100.00;95986.91;4989129;28;104142;-60
2023/06/10 06:38:03;;;;;;;6.80;6.20;;;;;;;18.51;100.00;95986.97;4989753;28;101838;-60
2023/06/10 06:40:32;;;;;;;6.47;5.87;;;;;;;18.82;100.00;95983.19;4992612;28;104664;-60
2023/06/10 06:42:59;;;;;;;6.10;5.50;;;;;;;19.04;100.00;95983.09;4989978;28;102191;-60
2023/06/10 06:45:58;;;;;;;7.10;6.50;;;;;;;19.02;100.00;95984.50;4973486;28;105388;-60
2023/06/10 06:48:25;;;;;;;6.57;6.03;;;;;;;19.20;100.00;95983.44;4969224;28;105119;-60
2023/06/10 06:50:52;;;;;;;7.80;7.10;;;;;;;19.17;100.00;95981.34;4969595;28;101978;-60
2023/06/10 06:53:19;;;;;;;8.03;7.33;;;;;;;19.19;100.00;95982.63;4969832;28;103873;-60
2023/06/10 06:55:47;;;;;;;7.77;7.17;;;;;;;19.11;100.00;95988.81;4968945;28;105381;-60
2023/06/10 06:58:14;;;;;;;8.63;7.93;;;;;;;19.09;100.00;95985.63;4969661;28;102281;-60
2023/06/10 07:00:41;;;;;;;8.23;7.53;;;;;;;19.53;100.00;95998.09;4972430;28;105703;-60
2023/06/10 07:03:11;;;;;;;7.93;7.23;;;;;;;19.78;100.00;95991.94;4986440;28;102185;-60
2023/06/10 07:05:39;;;;;;;6.70;6.20;;;;;;;20.19;100.00;95989.53;4969396;28;104039;-60
2023/06/10 07:08:06;;;;;;;8.53;7.70;;;;;;;20.13;100.00;95990.81;4968868;28;105160;-60
2023/06/10 07:10:33;;;;;;;8.67;7.80;;;;;;;19.48;100.00;95987.47;4969691;28;101917;-60
2023/06/10 07:13:01;;;;;;;8.40;7.63;;;;;;;19.63;100.00;95985.09;4969442;28;105397;-60
2023/06/10 07:15:28;;;;;;;8.53;7.80;;;;;;;19.96;100.00;95990.81;4967631;28;105307;-60
2023/06/10 07:17:56;;;;;;;8.30;7.60;;;;;;;20.01;100.00;95988.75;4969213;28;101980;-60
2023/06/10 07:20:22;;;;;;;8.13;7.43;;;;;;;20.07;100.00;95987.53;4969333;28;104795;-60
2023/06/10 07:22:49;;;;;;;8.27;7.47;;;;;;;20.05;100.00;95992.41;4972206;28;103893;-60
2023/06/10 07:25:16;;;;;;;9.00;8.20;;;;;;;19.63;100.00;95987.78;4969343;28;103739;-60
2023/06/10 07:27:43;;;;;;;8.50;7.80;;;;;;;19.77;100.00;95988.44;4968521;28;104232;-60
2023/06/10 07:30:13;;;;;;;8.27;7.57;;;;;;;20.28;100.00;95993.03;4969309;28;101924;-60
2023/06/10 07:32:39;;;;;;;9.83;8.10;;;;;;;20.20;100.00;95997.34;4969143;28;104049;-60
2023/06/10 07:35:11;;;;;;;8.50;7.80;;;;;;;20.38;100.00;95998.88;4970016;28;102595;-60
2023/06/10 07:37:38;;;;;;;9.20;8.40;;;;;;;20.47;100.00;95996.16;4970798;28;101738;-60
2023/06/10 07:40:06;;;;;;;8.73;7.93;;;;;;;20.65;100.00;95997.72;4969350;28;104743;-60
2023/06/10 07:42:33;;;;;;;9.13;8.33;;;;;;;20.95;100.00;95999.34;4968608;28;105275;-60
2023/06/10 07:45:00;;;;;;;8.60;7.80;;;;;;;21.19;100.00;96002.28;4989093;28;101820;-60
2023/06/10 07:47:28;;;;;;;8.60;7.90;;;;;;;20.50;100.00;96006.34;5008108;28;105643;-60
2023/06/10 07:49:55;;;;;;;8.27;7.60;;;;;;;20.51;100.00;95997.09;5008878;28;101862;-60
2023/06/10 07:52:22;;;;;;;7.70;7.00;;;;;;;21.46;100.00;95996.38;5008582;28;103670;-60
2023/06/10 07:54:49;;;;;;;8.90;8.10;;;;;;;21.54;100.00;95999.03;5008249;28;105100;-60
2023/06/10 07:57:16;;;;;;;9.17;8.30;;;;;;;21.44;100.00;95994.00;5008401;28;101925;-60
2023/06/10 07:59:44;;;;;;;9.23;8.43;;;;;;;21.41;100.00;95988.47;5008600;28;103624;-60
2023/06/10 08:02:11;;;;;;;8.50;7.70;;;;;;;21.76;100.00;95995.25;5007947;28;103883;-60
2023/06/10 08:04:39;;;;;;;8.90;8.00;;;;;;;21.88;100.00;95993.41;5008410;28;102158;-60
2023/06/10 08:07:06;;;;;;;9.23;8.43;;;;;;;21.92;100.00;95991.63;5011303;28;103669;-60
2023/06/10 08:09:33;;;;;;;8.50;7.80;;;;;;;21.57;100.00;95984.84;5008525;28;101940;-60
2023/06/10 08:12:00;;;;;;;9.37;8.27;;;;;;;21.35;100.00;95989.75;5008492;28;103970;-60
2023/06/10 08:14:26;;;;;;;8.97;8.10;;;;;;;21.21;100.00;95995.41;5007791;28;105123;-60
2023/06/10 08:16:53;;;;;;;8.93;8.13;;;;;;;21.63;100.00;95993.56;5008227;28;101982;-60
2023/06/10 08:19:20;;;;;;;8.37;7.57;;;;;;;22.18;100.00;95985.97;5008440;28;104003;-60
2023/06/10 08:21:49;;;;;;;8.40;7.70;;;;;;;22.71;100.00;95994.03;5009040;28;102694;-60
2023/06/10 08:24:18;;;;;;;8.63;7.93;;;;;;;22.85;100.00;95999.94;5008324;28;101908;-60
2023/06/10 08:26:45;;;;;;;9.40;8.50;;;;;;;23.13;100.00;95990.00;5010021;28;105060;-60
2023/06/10 08:29:13;;;;;;;9.43;8.63;;;;;;;22.88;100.00;95991.16;5014477;28;105716;-60
2023/06/10 08:31:42;;;;;;;10.37;9.47;;;;;;;21.84;100.00;95986.25;5011870;28;103592;-60
2023/06/10 08:34:09;;;;;;;9.40;8.60;;;;;;;22.33;100.00;95990.75;5011303;28;105024;-60
2023/06/10 08:36:36;;;;;;;9.57;8.73;;;;;;;22.76;100.00;95983.78;5011728;28;101950;-60
2023/06/10 08:39:05;;;;;;;8.90;8.00;;;;;;;23.16;100.00;95986.63;5011876;28;104832;-60
2023/06/10 08:41:37;;;;;;;9.77;8.97;;;;;;;22.93;100.00;95986.28;5010994;28;105419;-60
2023/06/10 08:44:14;;;;;;;9.50;8.70;;;;;;;23.19;100.00;95983.25;5011367;28;102215;-60
2023/06/10 08:46:45;;;;;;;10.27;9.37;;;;;;;22.46;100.00;95984.28;5011565;28;105600;-60
2023/06/10 08:49:20;;;;;;;9.23;8.43;;;;;;;22.45;100.00;95986.19;5011015;28;105849;-60
2023/06/10 08:51:50;;;;;;;9.97;9.07;;;;;;;22.24;100.00;95990.81;5015314;28;102139;-60
2023/06/10 08:54:26;;;;;;;8.60;7.90;;;;;;;22.80;100.00;95981.19;5011140;28;105064;-60
2023/06/10 08:56:56;;;;;;;7.10;6.50;;;;;;;23.03;100.00;95977.69;5011348;28;102024;-60
2023/06/10 08:59:24;;;;;;;6.93;6.40;;;;;;;23.64;100.00;95984.69;5011322;28;105692;-60
2023/06/10 09:01:52;;;;;;;6.60;6.00;;;;;;;23.63;100.00;95976.88;5010638;28;105709;-60
2023/06/10 09:04:20;;;;;;;6.33;5.83;;;;;;;23.64;100.00;95979.25;5011238;28;101904;-60
2023/06/10 09:06:48;;;;;;;6.60;6.00;;;;;;;23.94;100.00;95982.50;5011308;28;104998;-60
2023/06/10 09:09:15;;;;;;;6.20;5.60;;;;;;;23.86;100.00;95986.13;5010817;28;105329;-60
2023/06/10 09:11:44;;;;;;;6.07;5.63;;;;;;;24.14;100.00;95976.09;5014502;28;101803;-60
2023/06/10 09:14:12;;;;;;;6.50;6.00;;;;;;;24.83;100.00;95981.84;5010514;28;105900;-60
2023/06/10 09:16:40;;;;;;;5.70;5.30;;;;;;;25.33;100.00;95973.78;5011056;28;102203;-60
2023/06/10 09:19:08;;;;;;;6.17;5.07;;;;;;;26.02;100.00;95968.31;5011181;28;103830;-60
2023/06/10 09:21:35;;;;;;;5.53;5.07;;;;;;;26.44;92.62;95974.63;5010260;28;105714;-60
2023/06/10 09:24:03;;;;;;;5.40;5.00;;;;;;;26.35;80.88;95966.66;5011161;28;102171;-60
2023/06/10 09:26:30;;;;;;;5.70;5.30;;;;;;;26.83;87.71;95965.22;5012482;28;102835;-60
2023/06/10 09:29:04;;;;;;;5.67;5.17;;;;;;;27.17;81.60;95981.44;5010131;28;105178;-60
2023/06/10 09:31:31;;;;;;;5.20;4.80;;;;;;;26.86;79.52;95967.25;5012684;28;101860;-60
2023/06/10 09:34:06;;;;;;;5.00;4.60;;;;;;;27.33;71.14;95962.19;5013794;28;103708;-60
2023/06/10 09:36:34;;;;;;;4.33;4.03;;;;;;;27.38;71.13;95959.94;5010802;28;101822;-60
2023/06/10 09:39:00;;;;;;;4.27;3.97;;;;;;;27.69;63.88;95967.78;5009736;28;105289;-60
2023/06/10 09:41:33;;;;;;;5.83;5.33;;;;;;;26.25;82.68;95961.00;5009897;28;104175;-60
2023/06/10 09:44:01;;;;;;;5.07;4.67;;;;;;;27.12;83.33;95964.53;5010598;28;102279;-60
2023/06/10 09:46:32;;;;;;;5.87;5.47;;;;;;;26.32;90.38;95961.16;5010499;28;105236;-60
2023/06/10 09:49:00;;;;;;;5.77;5.17;;;;;;;26.68;95.90;95968.84;5010050;28;105279;-60
2023/06/10 09:51:27;;;;;;;6.10;5.60;;;;;;;26.52;90.85;95959.97;5010747;28;101838;-60
2023/06/10 09:53:54;;;;;;;6.20;5.60;;;;;;;25.12;100.00;95970.53;5010873;28;104840;-60
2023/06/10 09:56:23;;;;;;;5.63;5.13;;;;;;;24.18;100.00;95974.22;5013030;28;105635;-60
2023/06/10 09:58:53;;;;;;;5.80;5.30;;;;;;;23.67;100.00;95958.78;5010634;28;105590;-60
2023/06/10 10:01:22;;;;;;;5.83;5.10;;;;;;;23.76;100.00;95970.28;5009885;28;105446;-60
2023/06/10 10:03:51;;;;;;;4.63;4.23;;;;;;;23.99;100.00;95976.81;5011647;28;102165;-60
2023/06/10 10:06:20;;;;;;;5.10;4.70;;;;;;;24.24;100.00;95970.16;5010374;28;105165;-60
2023/06/10 10:08:49;;;;;;;4.93;4.43;;;;;;;24.19;100.00;95978.56;5009795;28;105439;-60
2023/06/10 10:11:18;;;;;;;4.73;4.40;;;;;;;24.26;100.00;95981.47;5011696;28;101898;-60
2023/06/10 10:13:46;;;;;;;4.50;4.20;;;;;;;23.54;100.00;95973.53;5010199;28;103938;-60
2023/06/10 10:16:16;;;;;;;4.80;4.40;;;;;;;24.05;100.00;95980.88;5011129;28;102536;-60
2023/06/10 10:18:50;;;;;;;4.17;3.87;;;;;;;24.18;100.00;95976.94;5014864;28;101824;-60
2023/06/10 10:21:23;;;;;;;4.33;4.03;;;;;;;24.04;100.00;95976.56;5011267;28;102652;-60
2023/06/10 10:23:55;;;;;;;4.77;4.37;;;;;;;23.99;100.00;95982.25;5010175;28;101798;-60
2023/06/10 10:26:22;;;;;;;4.07;3.77;;;;;;;23.82;100.00;95985.22;5010377;28;105187;-60
2023/06/10 10:28:59;;;;;;;4.50;4.00;;;;;;;24.24;100.00;95986.47;5010744;28;102521;-60
2023/06/10 10:31:30;;;;;;;4.20;3.80;;;;;;;24.43;100.00;95981.16;5010041;28;101899;-60
2023/06/10 10:34:00;;;;;;;4.13;3.90;;;;;;;24.44;100.00;95975.38;5011515;28;102378;-60
2023/06/10 10:36:28;;;;;;;4.63;4.23;;;;;;;25.10;100.00;95972.78;5010836;28;103245;-60
2023/06/10 10:38:55;;;;;;;4.20;3.90;;;;;;;25.53;99.03;95973.47;5011449;28;101765;-60
2023/06/10 10:41:26;;;;;;;3.97;3.67;;;;;;;25.53;100.00;95973.47;5012641;28;103559;-60
2023/06/10 10:43:54;;;;;;;4.33;4.03;;;;;;;25.13;99.92;95966.66;5010936;28;101980;-60
2023/06/10 10:46:21;;;;;;;4.27;3.87;;;;;;;24.78;100.00;95968.50;5011063;28;102347;-60
2023/06/10 10:48:53;;;;;;;4.30;4.00;;;;;;;24.97;100.00;95968.59;5008924;28;103934;-60
2023/06/10 10:51:24;;;;;;;3.87;3.67;;;;;;;24.97;98.36;95960.44;5009687;28;101977;-60
2023/06/10 10:54:13;;;;;;;4.30;3.90;;;;;;;25.09;95.37;95963.88;5011108;28;102419;-60
2023/06/10 10:56:41;;;;;;;4.00;3.70;;;;;;;25.27;96.59;95969.72;5010139;28;102958;-60
2023/06/10 10:59:09;;;;;;;4.30;3.90;;;;;;;25.56;93.95;95961.84;4993406;28;102052;-60
2023/06/10 11:01:46;;;;;;;4.00;3.70;;;;;;;25.15;89.74;95964.38;5009726;28;105288;-60
2023/06/10 11:04:12;;;;;;;4.03;3.63;;;;;;;24.62;93.29;95963.06;5012358;28;101974;-60
2023/06/10 11:06:52;;;;;;;4.07;3.77;;;;;;;24.86;90.75;95962.09;5010657;28;102294;-60
2023/06/10 11:09:29;;;;;;;3.83;3.63;;;;;;;24.40;100.00;95962.81;5008825;28;103938;-60
2023/06/10 11:11:58;;;;;;;4.30;3.97;;;;;;;24.96;97.29;95956.91;5009239;28;101888;-60
2023/06/10 11:14:29;;;;;;;4.40;4.00;;;;;;;25.86;76.78;95954.75;5009459;28;104850;-60
2023/06/10 11:16:58;;;;;;;3.93;3.63;;;;;;;26.46;90.88;95953.22;5010123;28;103331;-60
2023/06/10 11:19:35;;;;;;;3.87;3.43;;;;;;;26.53;92.49;95945.97;5009319;28;101891;-60
2023/06/10 11:22:06;;;;;;;3.53;3.33;;;;;;;27.52;83.37;95948.44;5010593;28;102403;-60
2023/06/10 11:24:33;;;;;;;3.73;3.43;;;;;;;28.28;74.36;95948.66;5013330;28;102530;-60